Time;durP1;ratioP1;P1;durP2;ratioP2;P2;SDS_P1;SDS_P2;PMS_P1;PMS_P2;Temp;Humidity;BMP_temperature;BMP_pressure;BME280_temperature;BME280_humidity;BME280_pressure;Samples;Min_cycle;Max_cycle;Signal;HPM_P1;HPM_P2
2022/08/29 00:01:21;;;;;;;6.60;2.08;;;14.00;99.90;;;;;;5046975;28;20422;-36
2022/08/29 00:03:47;;;;;;;6.32;1.73;;;14.20;99.90;;;;;;5047568;28;20033;-37
2022/08/29 00:06:13;;;;;;;6.63;1.60;;;14.70;99.90;;;;;;5046500;28;20167;-36
2022/08/29 00:08:38;;;;;;;5.57;1.70;;;14.40;99.90;;;;;;5046977;28;20080;-36
2022/08/29 00:11:06;;;;;;;8.00;1.73;;;14.20;99.90;;;;;;5046510;28;20061;-36
2022/08/29 00:13:33;;;;;;;4.55;1.60;;;14.20;99.90;;;;;;5047204;28;20407;-36
2022/08/29 00:15:59;;;;;;;4.97;1.40;;;14.30;99.90;;;;;;5046728;28;20086;-37
2022/08/29 00:18:25;;;;;;;4.88;1.60;;;14.20;99.90;;;;;;5046450;28;20135;-37
2022/08/29 00:20:50;;;;;;;5.55;1.70;;;14.20;99.90;;;;;;5046754;28;20041;-36
2022/08/29 00:23:16;;;;;;;7.00;1.75;;;14.40;99.90;;;;;;5046972;28;20039;-36
2022/08/29 00:25:42;;;;;;;6.43;2.20;;;14.20;99.90;;;;;;5047309;28;20098;-36
2022/08/29 00:28:08;;;;;;;3.70;1.65;;;14.20;99.90;;;;;;5047008;28;20091;-36
2022/08/29 00:30:34;;;;;;;3.45;1.27;;;14.50;99.90;;;;;;5047305;28;20858;-37
2022/08/29 00:33:00;;;;;;;7.25;1.95;;;14.20;99.90;;;;;;5047241;28;20040;-36
2022/08/29 00:35:33;;;;;;;8.85;1.70;;;14.20;99.90;;;;;;5046444;28;20083;-36
2022/08/29 00:37:59;;;;;;;;;;;14.30;99.90;;;;;;5046597;28;20087;-37
2022/08/29 00:40:29;;;;;;;6.00;2.22;;;14.20;99.90;;;;;;5046306;28;19927;-36
2022/08/29 00:42:55;;;;;;;6.88;1.85;;;14.20;99.90;;;;;;5046634;28;20040;-37
2022/08/29 00:45:21;;;;;;;7.55;1.70;;;14.20;99.90;;;;;;5046617;28;20517;-36
2022/08/29 00:47:53;;;;;;;5.78;2.15;;;14.20;99.90;;;;;;5046667;28;20049;-36
2022/08/29 00:50:26;;;;;;;4.85;1.70;;;14.50;99.90;;;;;;5046254;28;20068;-37
2022/08/29 00:52:55;;;;;;;5.60;1.58;;;14.20;99.90;;;;;;5046695;28;20392;-36
2022/08/29 00:55:24;;;;;;;6.55;1.92;;;14.20;99.90;;;;;;5046321;28;20055;-36
2022/08/29 00:57:56;;;;;;;5.22;2.08;;;14.20;99.90;;;;;;5046340;28;20391;-37
2022/08/29 01:00:23;;;;;;;4.93;1.90;;;14.20;99.90;;;;;;5046114;28;20515;-36
2022/08/29 01:02:50;;;;;;;5.68;2.00;;;14.20;99.90;;;;;;5046522;28;20124;-36
2022/08/29 01:05:18;;;;;;;7.00;1.98;;;14.20;99.90;;;;;;5046418;28;20141;-36
2022/08/29 01:07:45;;;;;;;6.10;2.08;;;14.20;99.90;;;;;;5046530;28;20052;-37
2022/08/29 01:12:14;;;;;;;4.60;2.05;;;14.30;99.90;;;;;;5046143;28;20049;-36
2022/08/29 01:12:58;;;;;;;5.20;2.38;;;14.30;99.90;;;;;;5045916;28;20057;-36
2022/08/29 01:15:26;;;;;;;5.38;1.85;;;14.30;99.90;;;;;;5046300;28;20037;-36
2022/08/29 01:17:53;;;;;;;6.88;2.22;;;14.30;99.90;;;;;;5046543;28;20071;-36
2022/08/29 01:20:48;;;;;;;7.97;2.20;;;14.30;99.90;;;;;;5046336;28;20040;-36
2022/08/29 01:23:40;;;;;;;3.85;1.80;;;14.30;99.90;;;;;;5046211;28;20052;-36
2022/08/29 01:26:08;;;;;;;5.97;2.40;;;14.30;99.90;;;;;;5046285;28;20053;-37
2022/08/29 01:28:39;;;;;;;6.05;2.08;;;14.30;99.90;;;;;;5045945;28;20091;-36
2022/08/29 01:31:10;;;;;;;6.80;1.98;;;14.20;99.90;;;;;;5045942;28;20358;-36
2022/08/29 01:33:38;;;;;;;7.78;2.15;;;14.40;99.90;;;;;;5045619;28;20049;-36
2022/08/29 01:36:04;;;;;;;4.45;2.13;;;14.30;99.90;;;;;;5045814;28;20416;-36
2022/08/29 01:38:31;;;;;;;7.78;1.70;;;14.40;99.90;;;;;;5045683;28;20483;-36
2022/08/29 01:40:58;;;;;;;6.68;1.95;;;14.20;99.90;;;;;;5045734;28;20589;-36
2022/08/29 01:43:25;;;;;;;7.13;2.08;;;14.30;99.90;;;;;;5045475;28;20047;-36
2022/08/29 01:45:51;;;;;;;5.10;2.20;;;14.60;99.90;;;;;;5046027;28;20045;-36
2022/08/29 01:48:18;;;;;;;5.03;2.05;;;14.60;99.90;;;;;;5047712;28;20091;-36
2022/08/29 01:50:45;;;;;;;8.80;2.47;;;14.30;99.90;;;;;;5050108;28;20040;-37
2022/08/29 01:53:11;;;;;;;6.03;1.90;;;14.70;99.90;;;;;;5049701;28;20511;-36
2022/08/29 01:55:38;;;;;;;5.93;2.55;;;14.20;99.90;;;;;;5049502;28;20368;-36
2022/08/29 01:58:04;;;;;;;5.53;2.13;;;14.30;99.90;;;;;;5049486;28;20045;-36
2022/08/29 02:00:30;;;;;;;5.10;2.05;;;14.20;99.90;;;;;;5049241;28;20056;-36
2022/08/29 02:02:59;;;;;;;4.97;1.55;;;15.00;99.90;;;;;;5049663;28;20036;-36
2022/08/29 02:05:26;;;;;;;4.82;2.22;;;14.10;99.90;;;;;;5049812;28;20068;-36
2022/08/29 02:07:51;;;;;;;5.45;2.38;;;14.30;99.90;;;;;;5048272;28;20520;-37
2022/08/29 02:10:17;;;;;;;3.92;1.80;;;14.20;99.90;;;;;;5049509;28;20067;-36
2022/08/29 02:12:43;;;;;;;5.32;1.80;;;14.30;99.90;;;;;;5049666;28;20150;-36
2022/08/29 02:15:09;;;;;;;7.55;1.63;;;14.40;99.90;;;;;;5049708;28;20045;-36
2022/08/29 02:17:36;;;;;;;8.73;2.42;;;14.30;99.90;;;;;;5049158;28;20072;-37
2022/08/29 02:20:06;;;;;;;8.18;2.20;;;14.30;99.90;;;;;;5049796;28;20486;-36
2022/08/29 02:22:32;;;;;;;7.63;2.67;;;14.30;99.90;;;;;;5049982;28;20076;-37
2022/08/29 02:24:58;;;;;;;6.43;2.15;;;14.30;99.90;;;;;;5047967;28;20537;-36
2022/08/29 02:27:23;;;;;;;8.55;3.08;;;14.90;99.90;;;;;;5047687;28;20155;-36
2022/08/29 02:29:49;;;;;;;12.05;2.50;;;14.40;99.90;;;;;;5049321;28;20124;-36
2022/08/29 02:32:15;;;;;;;7.50;3.38;;;14.30;99.90;;;;;;5049156;28;20128;-36
2022/08/29 02:34:43;;;;;;;6.22;1.90;;;14.20;99.90;;;;;;5048985;28;20048;-36
2022/08/29 02:37:08;;;;;;;7.43;2.50;;;14.30;99.90;;;;;;5048886;28;20155;-36
2022/08/29 02:39:34;;;;;;;9.68;2.60;;;14.30;99.90;;;;;;5048655;28;20144;-36
2022/08/29 02:42:00;;;;;;;6.38;2.05;;;14.20;99.90;;;;;;5047807;28;20118;-36
2022/08/29 02:44:26;;;;;;;6.28;1.98;;;14.20;99.90;;;;;;5048689;28;20041;-36
2022/08/29 02:46:52;;;;;;;6.63;2.30;;;14.30;99.90;;;;;;5048385;28;20041;-37
2022/08/29 02:49:18;;;;;;;8.43;2.47;;;14.20;99.90;;;;;;5048429;28;20544;-36
2022/08/29 02:51:43;;;;;;;8.30;2.05;;;14.20;99.90;;;;;;5048143;28;20044;-36
2022/08/29 02:54:10;;;;;;;7.95;1.95;;;14.30;99.90;;;;;;5048974;28;20365;-36
2022/08/29 02:56:37;;;;;;;6.18;1.67;;;14.30;99.90;;;;;;5047971;28;20559;-36
2022/08/29 02:59:02;;;;;;;8.48;2.03;;;14.30;99.90;;;;;;5047826;28;20049;-37
2022/08/29 03:01:29;;;;;;;6.80;2.55;;;14.50;99.90;;;;;;5048173;28;20115;-36
2022/08/29 03:03:55;;;;;;;5.47;1.70;;;14.20;99.90;;;;;;5048204;28;20461;-37
2022/08/29 03:06:22;;;;;;;5.40;2.17;;;14.20;99.90;;;;;;5048290;28;20123;-36
2022/08/29 03:08:48;;;;;;;6.50;1.88;;;14.10;99.90;;;;;;5046887;28;20510;-37
2022/08/29 03:11:14;;;;;;;6.03;2.42;;;14.20;99.90;;;;;;5048356;28;20191;-37
2022/08/29 03:13:40;;;;;;;7.90;2.17;;;14.30;99.90;;;;;;5048315;28;20056;-36
2022/08/29 03:16:07;;;;;;;5.72;2.20;;;14.10;99.90;;;;;;5048346;28;20041;-37
2022/08/29 03:18:33;;;;;;;4.65;1.95;;;14.10;99.90;;;;;;5047909;28;20040;-36
2022/08/29 03:20:58;;;;;;;7.22;2.10;;;14.00;99.90;;;;;;5047966;28;20041;-36
2022/08/29 03:23:24;;;;;;;5.65;2.00;;;14.10;99.90;;;;;;5048092;28;20037;-37
2022/08/29 03:25:50;;;;;;;3.80;1.65;;;14.10;99.90;;;;;;5047894;28;20500;-36
2022/08/29 03:28:16;;;;;;;8.57;2.55;;;14.10;99.90;;;;;;5048091;28;20095;-37
2022/08/29 03:30:41;;;;;;;6.50;1.80;;;14.10;99.90;;;;;;5047917;28;20518;-37
2022/08/29 03:33:07;;;;;;;5.38;1.92;;;14.60;99.90;;;;;;5048146;28;20045;-37
2022/08/29 03:35:33;;;;;;;8.15;2.53;;;14.30;99.90;;;;;;5047666;28;20513;-36
2022/08/29 03:37:59;;;;;;;6.32;2.05;;;14.10;99.90;;;;;;5047672;28;20101;-36
2022/08/29 03:40:25;;;;;;;8.73;2.75;;;14.30;99.90;;;;;;5046359;28;20222;-36
2022/08/29 03:42:52;;;;;;;8.07;2.22;;;14.00;99.90;;;;;;5047194;28;20494;-36
2022/08/29 03:45:20;;;;;;;6.05;1.70;;;14.00;99.90;;;;;;5047560;28;20037;-36
2022/08/29 03:47:46;;;;;;;4.53;1.58;;;14.00;99.90;;;;;;5045426;28;20429;-37
2022/08/29 03:50:13;;;;;;;5.57;1.65;;;13.80;99.90;;;;;;5047109;28;20044;-36
2022/08/29 03:52:41;;;;;;;8.90;1.90;;;13.70;99.90;;;;;;5047281;28;20045;-36
2022/08/29 03:55:08;;;;;;;4.82;1.80;;;13.90;99.90;;;;;;5047477;28;20466;-36
2022/08/29 03:57:34;;;;;;;7.35;2.22;;;13.90;99.90;;;;;;5046711;28;20076;-37
2022/08/29 04:00:01;;;;;;;4.80;1.90;;;13.90;99.90;;;;;;5047238;28;20087;-36
2022/08/29 04:02:27;;;;;;;6.93;1.80;;;14.00;99.90;;;;;;5047193;28;20045;-36
2022/08/29 04:05:07;;;;;;;5.47;2.28;;;13.80;99.90;;;;;;5046898;28;20106;-36
2022/08/29 04:07:48;;;;;;;7.25;2.75;;;13.90;99.90;;;;;;5046832;28;20437;-36
2022/08/29 04:10:21;;;;;;;8.90;2.38;;;13.90;99.90;;;;;;5046975;28;20574;-37
2022/08/29 04:12:47;;;;;;;5.50;1.23;;;13.90;99.90;;;;;;5046527;28;20478;-36
2022/08/29 04:15:13;;;;;;;4.13;1.55;;;13.90;99.90;;;;;;5046858;28;20052;-36
2022/08/29 04:17:39;;;;;;;5.40;1.90;;;13.90;99.90;;;;;;5046729;28;20041;-37
2022/08/29 04:20:07;;;;;;;4.53;1.98;;;13.90;99.90;;;;;;5046967;28;20040;-37
2022/08/29 04:22:35;;;;;;;7.53;2.13;;;13.80;99.90;;;;;;5046888;28;20045;-37
2022/08/29 04:25:01;;;;;;;7.32;2.10;;;14.10;99.90;;;;;;5046897;28;20052;-36
2022/08/29 04:27:27;;;;;;;6.25;2.28;;;13.70;99.90;;;;;;5046950;28;20044;-37
2022/08/29 04:29:52;;;;;;;6.43;2.20;;;13.70;99.90;;;;;;5046794;28;20123;-36
2022/08/29 04:32:19;;;;;;;5.90;2.28;;;13.80;99.90;;;;;;5046763;28;20119;-37
2022/08/29 04:34:44;;;;;;;6.72;2.05;;;13.70;99.90;;;;;;5046513;28;20041;-36
2022/08/29 04:37:11;;;;;;;8.32;2.55;;;13.80;99.90;;;;;;5046742;28;20047;-37
2022/08/29 04:39:37;;;;;;;7.32;2.03;;;13.60;99.90;;;;;;5046991;28;20037;-36
2022/08/29 04:42:03;;;;;;;7.22;2.25;;;13.70;99.90;;;;;;5047133;28;20475;-36
2022/08/29 04:44:28;;;;;;;6.25;2.70;;;13.70;99.90;;;;;;5047451;28;20052;-36
2022/08/29 04:46:54;;;;;;;6.78;2.38;;;13.70;99.90;;;;;;5046753;28;20051;-36
2022/08/29 04:49:20;;;;;;;7.68;2.15;;;13.70;99.90;;;;;;5046681;28;20037;-36
2022/08/29 04:51:46;;;;;;;5.45;1.77;;;13.70;99.90;;;;;;5046325;28;20049;-36
2022/08/29 04:54:12;;;;;;;7.70;2.92;;;13.50;99.90;;;;;;5046436;28;20254;-36
2022/08/29 04:56:37;;;;;;;8.18;2.20;;;13.60;99.90;;;;;;5046158;28;20455;-36
2022/08/29 04:59:03;;;;;;;5.20;1.67;;;14.30;99.90;;;;;;5046566;28;20164;-36
2022/08/29 05:01:29;;;;;;;7.40;1.90;;;13.50;99.90;;;;;;5046609;28;20044;-37
2022/08/29 05:03:56;;;;;;;7.05;2.15;;;13.60;99.90;;;;;;5046299;28;20029;-37
2022/08/29 05:06:23;;;;;;;7.93;2.35;;;13.60;99.90;;;;;;5046292;28;20063;-36
2022/08/29 05:08:49;;;;;;;6.57;2.30;;;13.60;99.90;;;;;;5046628;28;20040;-36
2022/08/29 05:11:18;;;;;;;8.75;1.85;;;13.60;99.90;;;;;;5046444;28;20095;-37
2022/08/29 05:13:45;;;;;;;6.80;2.15;;;13.60;99.90;;;;;;5046464;28;20045;-36
2022/08/29 05:16:13;;;;;;;8.57;2.30;;;13.70;99.90;;;;;;5046918;28;20045;-36
2022/08/29 05:18:40;;;;;;;9.05;2.50;;;13.70;99.90;;;;;;5046151;28;20499;-36
2022/08/29 05:21:06;;;;;;;10.05;2.38;;;13.50;99.90;;;;;;5046358;28;20037;-37
2022/08/29 05:23:32;;;;;;;10.15;2.40;;;13.70;99.90;;;;;;5048423;28;20071;-36
2022/08/29 05:26:00;;;;;;;12.50;2.03;;;13.80;99.90;;;;;;5049934;28;20044;-36
2022/08/29 05:28:28;;;;;;;10.75;2.03;;;14.40;99.90;;;;;;5050474;28;20356;-36
2022/08/29 05:30:54;;;;;;;8.40;2.70;;;14.20;99.90;;;;;;5049991;28;20037;-36
2022/08/29 05:33:20;;;;;;;9.88;2.30;;;14.00;99.90;;;;;;5050012;28;20420;-37
2022/08/29 05:35:46;;;;;;;6.68;1.90;;;14.00;99.90;;;;;;5049733;28;20358;-36
2022/08/29 05:38:12;;;;;;;8.38;2.15;;;14.10;99.90;;;;;;5049777;28;20045;-36
2022/08/29 05:40:38;;;;;;;8.90;2.75;;;14.10;99.90;;;;;;5049593;28;20048;-36
2022/08/29 05:43:06;;;;;;;9.63;2.00;;;14.20;99.90;;;;;;5049804;28;20116;-37
2022/08/29 05:45:32;;;;;;;4.82;2.20;;;14.30;99.90;;;;;;5049995;28;20044;-36
2022/08/29 05:48:02;;;;;;;6.80;2.25;;;14.40;99.90;;;;;;5049742;28;20553;-37
2022/08/29 05:50:28;;;;;;;4.88;1.67;;;14.70;99.90;;;;;;5049967;28;20433;-37
2022/08/29 05:52:53;;;;;;;5.80;2.00;;;14.60;99.90;;;;;;5049476;28;20040;-36
2022/08/29 05:55:19;;;;;;;9.88;2.60;;;14.70;99.90;;;;;;5049396;28;20574;-37
2022/08/29 05:57:45;;;;;;;8.55;2.08;;;14.90;99.90;;;;;;5049225;28;20040;-36
2022/08/29 06:00:11;;;;;;;8.05;1.98;;;15.00;99.90;;;;;;5049068;28;20494;-36
2022/08/29 06:02:37;;;;;;;8.43;2.33;;;15.20;99.90;;;;;;5049564;28;20109;-36
2022/08/29 06:05:03;;;;;;;7.88;1.73;;;15.40;99.90;;;;;;5049041;28;20482;-36
2022/08/29 06:07:31;;;;;;;6.97;2.00;;;15.70;99.90;;;;;;5031540;28;20110;-37
2022/08/29 06:09:57;;;;;;;7.82;1.73;;;16.30;99.90;;;;;;5049154;28;20052;-37
2022/08/29 06:12:23;;;;;;;6.60;2.35;;;16.60;99.90;;;;;;5048749;28;20057;-36
2022/08/29 06:14:49;;;;;;;9.55;1.58;;;16.90;99.90;;;;;;5049229;28;20053;-37
2022/08/29 06:17:15;;;;;;;4.50;1.17;;;17.60;99.90;;;;;;5049258;28;20053;-37
2022/08/29 06:19:40;;;;;;;7.95;1.45;;;17.80;99.90;;;;;;5048878;28;20445;-37
2022/08/29 06:22:08;;;;;;;9.48;2.25;;;17.80;99.90;;;;;;5048955;28;20072;-37
2022/08/29 06:24:34;;;;;;;11.43;2.15;;;17.80;99.90;;;;;;5049136;28;20043;-36
2022/08/29 06:27:00;;;;;;;8.40;1.40;;;17.70;99.90;;;;;;5048794;28;20512;-37
2022/08/29 06:29:27;;;;;;;9.07;1.80;;;17.70;99.90;;;;;;5049397;28;20128;-37
2022/08/29 06:31:55;;;;;;;6.55;1.20;;;17.70;99.90;;;;;;5048881;28;20051;-37
2022/08/29 06:34:21;;;;;;;8.52;1.25;;;17.80;99.90;;;;;;5047508;28;20491;-37
2022/08/29 06:36:47;;;;;;;10.13;2.10;;;18.10;99.90;;;;;;5049036;28;20047;-37
2022/08/29 06:39:13;;;;;;;6.60;1.15;;;18.30;99.90;;;;;;5048174;28;20048;-37
2022/08/29 06:41:39;;;;;;;7.55;1.83;;;18.60;99.90;;;;;;5048861;28;20049;-37
2022/08/29 06:44:06;;;;;;;6.72;1.10;;;18.90;99.90;;;;;;5048826;28;20062;-37
2022/08/29 06:46:37;;;;;;;6.25;1.38;;;19.60;99.90;;;;;;5048764;28;20494;-37
2022/08/29 06:49:04;;;;;;;7.70;1.60;;;20.30;99.90;;;;;;5048448;28;20467;-37
2022/08/29 06:51:32;;;;;;;7.07;1.95;;;20.50;99.90;;;;;;5048899;28;20037;-37
2022/08/29 06:53:59;;;;;;;7.82;1.10;;;20.50;99.90;;;;;;5048523;28;20049;-37
2022/08/29 06:56:25;;;;;;;6.93;1.15;;;20.50;99.90;;;;;;5048487;28;20091;-37
2022/08/29 06:58:51;;;;;;;5.45;0.90;;;20.50;99.90;;;;;;5048228;28;20455;-37
2022/08/29 07:01:18;;;;;;;6.68;1.30;;;20.50;99.90;;;;;;5048254;28;20045;-36
2022/08/29 07:03:45;;;;;;;7.30;1.90;;;20.50;99.90;;;;;;5048408;28;20118;-37
2022/08/29 07:06:12;;;;;;;7.50;1.40;;;20.50;99.90;;;;;;5048551;28;20072;-37
2022/08/29 07:08:38;;;;;;;5.55;1.38;;;20.50;99.90;;;;;;5048654;28;20071;-37
2022/08/29 07:11:04;;;;;;;10.52;2.33;;;20.50;99.90;;;;;;5047879;28;20097;-37
2022/08/29 07:13:30;;;;;;;8.55;1.77;;;20.50;99.90;;;;;;5047991;28;20057;-37
2022/08/29 07:15:56;;;;;;;6.97;2.00;;;20.50;99.90;;;;;;5047648;28;20041;-37
2022/08/29 07:18:23;;;;;;;9.88;2.08;;;20.50;99.90;;;;;;5047440;28;20175;-37
2022/08/29 07:20:48;;;;;;;5.82;1.42;;;20.60;99.90;;;;;;5047519;28;20037;-37
2022/08/29 07:23:14;;;;;;;8.15;1.50;;;20.60;99.90;;;;;;5047471;28;20422;-37
2022/08/29 07:25:40;;;;;;;7.78;1.92;;;20.70;99.90;;;;;;5047392;28;20136;-37
2022/08/29 07:28:05;;;;;;;8.32;1.60;;;20.70;99.90;;;;;;5047052;28;20382;-37
2022/08/29 07:30:32;;;;;;;8.27;1.60;;;20.80;99.90;;;;;;5047875;28;20709;-37
2022/08/29 07:32:58;;;;;;;6.15;1.38;;;20.90;99.90;;;;;;5046784;28;20045;-37
2022/08/29 07:35:24;;;;;;;8.05;2.03;;;21.00;99.90;;;;;;5047482;28;20047;-37
2022/08/29 07:37:51;;;;;;;5.60;1.45;;;21.00;99.90;;;;;;5047526;28;20048;-37
2022/08/29 07:40:16;;;;;;;8.52;2.05;;;21.00;99.90;;;;;;5046005;28;20045;-37
2022/08/29 07:42:43;;;;;;;6.47;1.40;;;21.00;99.90;;;;;;5047539;28;20056;-37
2022/08/29 07:45:10;;;;;;;7.00;1.33;;;20.80;99.90;;;;;;5045970;28;20040;-37
2022/08/29 07:47:36;;;;;;;8.02;1.60;;;20.60;99.90;;;;;;5046556;28;20502;-37
2022/08/29 07:50:04;;;;;;;6.47;1.30;;;20.50;99.90;;;;;;5047095;28;20509;-37
2022/08/29 07:52:29;;;;;;;5.30;1.05;;;20.40;99.90;;;;;;5047610;28;20096;-37
2022/08/29 07:54:55;;;;;;;7.97;1.75;;;20.30;99.90;;;;;;5047059;28;20568;-37
2022/08/29 07:57:22;;;;;;;7.18;1.45;;;20.30;99.90;;;;;;5046883;28;20048;-37
2022/08/29 07:59:47;;;;;;;8.45;1.20;;;20.30;99.90;;;;;;5047169;28;20106;-37
2022/08/29 08:02:13;;;;;;;7.25;1.80;;;20.30;99.90;;;;;;5046682;28;20073;-37
2022/08/29 08:04:39;;;;;;;8.77;1.60;;;20.30;99.90;;;;;;5046467;28;20068;-37
2022/08/29 08:07:05;;;;;;;7.28;1.50;;;20.40;99.90;;;;;;5046987;28;20049;-37
2022/08/29 08:09:31;;;;;;;8.73;2.30;;;20.40;99.90;;;;;;5046804;28;20129;-37
2022/08/29 08:11:56;;;;;;;13.90;2.78;;;20.40;99.90;;;;;;5046673;28;20064;-37
2022/08/29 08:14:22;;;;;;;11.38;1.95;;;20.40;99.90;;;;;;5046824;28;20083;-37
2022/08/29 08:16:48;;;;;;;9.25;2.20;;;20.50;99.90;;;;;;5046935;28;20395;-37
2022/08/29 08:19:14;;;;;;;9.10;2.25;;;20.60;99.90;;;;;;5046582;28;20384;-37
2022/08/29 08:21:42;;;;;;;9.88;1.70;;;20.70;99.90;;;;;;5047141;28;20462;-37
2022/08/29 08:24:08;;;;;;;9.60;2.70;;;20.90;99.90;;;;;;5046416;28;20052;-37
2022/08/29 08:26:34;;;;;;;11.05;2.22;;;21.10;99.90;;;;;;5045863;28;20052;-37
2022/08/29 08:29:00;;;;;;;10.80;2.22;;;21.40;99.90;;;;;;5024877;28;20052;-37
2022/08/29 08:31:26;;;;;;;5.85;0.80;;;21.70;99.90;;;;;;5044067;28;20043;-36
2022/08/29 08:33:53;;;;;;;4.88;0.80;;;21.90;99.90;;;;;;5043683;28;20123;-37
2022/08/29 08:36:20;;;;;;;11.38;2.25;;;22.10;98.20;;;;;;5043110;28;20303;-37
2022/08/29 08:38:47;;;;;;;8.02;1.40;;;22.10;97.40;;;;;;5043274;28;20047;-37
2022/08/29 08:41:46;;;;;;;7.50;1.70;;;22.20;96.90;;;;;;5042758;28;20413;-37
2022/08/29 08:44:20;;;;;;;10.30;2.20;;;22.50;96.70;;;;;;5043264;28;20051;-37
2022/08/29 08:46:51;;;;;;;8.02;1.52;;;24.30;95.40;;;;;;5043600;28;20053;-37
2022/08/29 08:49:34;;;;;;;6.30;2.10;;;25.20;93.60;;;;;;5043512;28;20046;-37
2022/08/29 08:52:12;;;;;;;11.48;1.88;;;25.70;91.10;;;;;;5043363;28;20517;-37
2022/08/29 08:55:09;;;;;;;7.25;2.33;;;25.70;89.50;;;;;;5043086;28;20443;-37
2022/08/29 08:57:50;;;;;;;6.47;1.25;;;25.80;88.20;;;;;;5044476;28;20501;-37
2022/08/29 09:00:15;;;;;;;9.57;2.05;;;25.60;86.20;;;;;;5050160;28;20075;-37
2022/08/29 09:03:03;;;;;;;6.78;1.92;;;25.40;86.50;;;;;;5051083;28;20041;-37
2022/08/29 09:05:33;;;;;;;7.97;1.90;;;25.30;84.90;;;;;;5050275;28;20052;-37
2022/08/29 09:08:20;;;;;;;9.70;2.00;;;25.50;85.80;;;;;;5050866;28;20450;-37
2022/08/29 09:11:08;;;;;;;8.85;1.63;;;25.70;85.10;;;;;;5050907;28;20523;-37
2022/08/29 09:14:02;;;;;;;7.10;1.63;;;25.80;83.90;;;;;;5050317;28;20080;-37
2022/08/29 09:16:33;;;;;;;9.90;2.17;;;25.70;82.60;;;;;;5050429;28;20122;-37
2022/08/29 09:19:08;;;;;;;11.10;2.03;;;25.40;84.00;;;;;;5050864;28;20074;-37
2022/08/29 09:21:44;;;;;;;7.65;1.70;;;25.10;84.50;;;;;;5050475;28;20088;-37
2022/08/29 09:24:19;;;;;;;5.03;1.75;;;24.90;84.80;;;;;;5050905;28;20721;-37
2022/08/29 09:26:45;;;;;;;8.85;1.83;;;24.60;84.90;;;;;;5050763;28;20051;-36
2022/08/29 09:29:12;;;;;;;7.45;1.67;;;24.30;86.00;;;;;;5050635;28;20037;-36
2022/08/29 09:31:39;;;;;;;5.97;1.90;;;24.00;86.70;;;;;;5051427;28;20052;-37
2022/08/29 09:34:31;;;;;;;6.50;1.75;;;23.90;87.50;;;;;;5050673;28;20055;-37
2022/08/29 09:36:57;;;;;;;6.30;2.00;;;23.70;88.30;;;;;;5050873;28;20403;-37
2022/08/29 09:39:28;;;;;;;8.32;2.25;;;23.50;89.30;;;;;;5050141;28;20047;-37
2022/08/29 09:42:20;;;;;;;6.15;1.77;;;23.40;89.30;;;;;;5050898;28;20048;-37
2022/08/29 09:45:01;;;;;;;7.35;2.03;;;23.30;90.20;;;;;;5047450;28;20061;-37
2022/08/29 09:47:34;;;;;;;11.57;2.33;;;23.20;90.10;;;;;;5050152;28;20049;-37
2022/08/29 09:50:00;;;;;;;6.78;1.90;;;23.10;90.20;;;;;;5050587;28;20689;-37
2022/08/29 09:52:26;;;;;;;9.40;1.35;;;22.90;90.30;;;;;;5050327;28;20178;-36
2022/08/29 09:54:51;;;;;;;9.25;1.73;;;22.70;90.90;;;;;;5050032;28;20049;-37
2022/08/29 09:57:17;;;;;;;12.32;2.42;;;22.50;91.40;;;;;;5049923;28;20052;-37
2022/08/29 09:59:46;;;;;;;8.50;2.10;;;22.30;92.10;;;;;;5050361;28;20037;-37
2022/08/29 10:02:51;;;;;;;6.80;2.08;;;22.20;93.40;;;;;;5050240;28;20387;-36
2022/08/29 10:05:34;;;;;;;11.32;1.92;;;22.10;95.60;;;;;;5049188;28;20495;-36
2022/08/29 10:08:02;;;;;;;7.63;1.92;;;22.10;95.60;;;;;;5049890;28;20855;-37
2022/08/29 10:10:31;;;;;;;11.32;2.22;;;22.00;95.90;;;;;;5049407;28;20044;-36
2022/08/29 10:13:18;;;;;;;7.40;2.63;;;21.90;96.50;;;;;;5049394;28;20155;-37
2022/08/29 10:16:01;;;;;;;7.10;1.88;;;21.80;96.50;;;;;;5049758;28;20573;-37
2022/08/29 10:18:53;;;;;;;9.38;2.15;;;21.70;96.50;;;;;;5049550;28;20048;-37
2022/08/29 10:21:31;;;;;;;9.48;2.20;;;21.50;97.10;;;;;;5049433;28;20082;-37
2022/08/29 10:24:35;;;;;;;7.22;2.22;;;22.50;98.20;;;;;;5049587;28;20058;-37
2022/08/29 10:27:23;;;;;;;12.98;2.28;;;21.20;98.50;;;;;;5048942;28;20450;-37
2022/08/29 10:30:03;;;;;;;10.13;2.15;;;21.20;98.60;;;;;;5049685;28;20045;-36
2022/08/29 10:32:43;;;;;;;7.28;2.42;;;21.10;99.30;;;;;;5049875;28;20048;-36
2022/08/29 10:35:28;;;;;;;8.93;2.30;;;21.00;99.90;;;;;;5049629;28;20123;-37
2022/08/29 10:38:00;;;;;;;7.97;2.47;;;21.00;99.90;;;;;;5050176;28;20053;-37
2022/08/29 10:40:44;;;;;;;7.63;2.95;;;21.00;99.90;;;;;;5049671;28;20119;-37
2022/08/29 10:43:34;;;;;;;8.68;2.55;;;21.00;99.90;;;;;;5049874;28;20049;-37
2022/08/29 10:46:24;;;;;;;8.10;1.88;;;21.00;99.90;;;;;;5050044;28;20041;-37
2022/08/29 10:49:03;;;;;;;6.68;2.10;;;21.10;99.90;;;;;;5049514;28;20049;-36
2022/08/29 10:51:58;;;;;;;6.57;2.20;;;21.20;99.90;;;;;;5049943;28;20036;-37
2022/08/29 10:54:39;;;;;;;8.63;1.85;;;21.30;99.90;;;;;;5049013;28;20045;-37
2022/08/29 10:57:07;;;;;;;9.65;2.00;;;21.50;99.90;;;;;;5047298;28;20088;-45
2022/08/29 11:00:17;;;;;;;6.78;1.83;;;21.60;99.90;;;;;;5044178;28;20088;-49
2022/08/29 11:03:37;;;;;;;8.35;1.95;;;21.80;99.90;;;;;;5034458;28;20057;-46
2022/08/29 11:06:11;;;;;;;9.10;2.10;;;21.90;99.90;;;;;;5036118;28;20060;-42
2022/08/29 11:08:45;;;;;;;6.28;2.15;;;21.90;99.90;;;;;;5047880;28;20366;-55
2022/08/29 11:11:18;;;;;;;9.35;2.08;;;21.90;99.90;;;;;;5046115;28;20056;-47
2022/08/29 11:13:48;;;;;;;5.38;2.00;;;21.90;99.90;;;;;;5047996;28;20051;-47
2022/08/29 11:16:23;;;;;;;7.15;1.98;;;21.80;99.90;;;;;;5047602;28;20120;-46
2022/08/29 11:19:01;;;;;;;5.68;1.45;;;21.80;99.90;;;;;;5047404;28;20686;-47
2022/08/29 11:21:35;;;;;;;10.95;2.10;;;21.80;99.90;;;;;;5046114;28;20041;-44
2022/08/29 11:24:02;;;;;;;7.53;2.10;;;21.80;99.90;;;;;;5046858;28;20585;-43
2022/08/29 11:26:43;;;;;;;7.13;1.85;;;21.80;99.90;;;;;;5045850;28;20503;-42
2022/08/29 11:29:40;;;;;;;4.53;1.73;;;21.90;99.80;;;;;;5047312;28;20124;-43
2022/08/29 11:32:31;;;;;;;6.22;1.60;;;21.90;99.40;;;;;;5047222;28;20581;-41
2022/08/29 11:35:05;;;;;;;8.15;1.88;;;22.10;99.10;;;;;;5048115;28;20041;-43
2022/08/29 11:37:46;;;;;;;9.10;2.10;;;22.30;99.00;;;;;;5047536;28;20644;-42
2022/08/29 11:40:34;;;;;;;6.03;2.10;;;22.60;98.70;;;;;;5047674;28;20045;-42
2022/08/29 11:43:01;;;;;;;6.90;2.22;;;22.80;98.30;;;;;;5043644;28;20531;-41
2022/08/29 11:45:31;;;;;;;11.00;1.67;;;22.90;97.70;;;;;;5046892;28;20473;-42
2022/08/29 11:48:02;;;;;;;8.07;2.47;;;23.10;97.00;;;;;;5047250;28;20107;-42
2022/08/29 11:50:32;;;;;;;8.45;2.03;;;23.10;96.10;;;;;;5047452;28;20509;-42
2022/08/29 11:53:09;;;;;;;13.20;2.05;;;23.00;95.60;;;;;;5047202;28;20033;-43
2022/08/29 11:56:13;;;;;;;8.13;1.52;;;23.10;94.80;;;;;;5046658;28;20045;-43
2022/08/29 11:58:41;;;;;;;7.13;1.70;;;23.00;94.20;;;;;;5037910;28;20056;-42
2022/08/29 12:01:32;;;;;;;7.97;1.70;;;22.80;94.70;;;;;;5046188;28;20088;-43
2022/08/29 12:03:59;;;;;;;6.53;1.80;;;22.70;97.10;;;;;;5042132;28;20080;-43
2022/08/29 12:06:56;;;;;;;12.00;2.85;;;22.50;97.30;;;;;;5046541;28;20044;-44
2022/08/29 12:09:55;;;;;;;6.13;1.80;;;22.40;98.60;;;;;;5047243;28;20040;-42
2022/08/29 12:12:40;;;;;;;7.28;2.13;;;22.20;99.40;;;;;;5047204;28;20049;-42
2022/08/29 12:15:37;;;;;;;8.23;2.58;;;22.20;99.60;;;;;;5046803;28;20032;-43
2022/08/29 12:18:08;;;;;;;6.82;2.20;;;22.10;99.90;;;;;;5047125;28;20053;-43
2022/08/29 12:20:47;;;;;;;5.40;1.70;;;22.20;99.90;;;;;;5047319;28;20099;-44
2022/08/29 12:23:13;;;;;;;8.32;2.60;;;22.20;99.90;;;;;;5046562;28;20049;-42
2022/08/29 12:25:42;;;;;;;5.68;2.17;;;22.20;99.90;;;;;;5045940;28;20052;-43
2022/08/29 12:28:19;;;;;;;4.35;1.67;;;22.40;99.90;;;;;;5046197;28;20497;-43
2022/08/29 12:31:10;;;;;;;4.32;1.55;;;22.50;99.90;;;;;;5046552;28;20277;-42
2022/08/29 12:33:48;;;;;;;8.48;2.45;;;22.60;99.90;;;;;;5045780;28;20057;-43
2022/08/29 12:36:41;;;;;;;5.43;1.35;;;22.80;99.90;;;;;;5046469;28;20040;-42
2022/08/29 12:39:21;;;;;;;8.38;1.80;;;22.80;96.00;;;;;;5045826;28;20041;-42
2022/08/29 12:41:56;;;;;;;7.43;1.60;;;22.80;97.80;;;;;;5046074;28;20558;-42
2022/08/29 12:44:44;;;;;;;5.88;1.27;;;22.90;97.40;;;;;;5046578;28;20080;-45
2022/08/29 12:47:23;;;;;;;4.18;1.33;;;23.00;97.20;;;;;;5046886;28;20045;-43
2022/08/29 12:49:54;;;;;;;4.60;1.02;;;23.20;96.10;;;;;;5046354;28;20041;-42
2022/08/29 12:52:22;;;;;;;4.38;0.88;;;23.30;96.10;;;;;;5046047;28;20045;-44
2022/08/29 12:54:48;;;;;;;5.75;1.30;;;23.50;95.80;;;;;;5045507;28;20474;-42
2022/08/29 12:57:27;;;;;;;5.90;1.30;;;23.60;94.70;;;;;;5045177;28;20041;-44
2022/08/29 12:59:54;;;;;;;5.07;1.27;;;23.60;93.50;;;;;;5043858;28;20780;-47
2022/08/29 13:02:33;;;;;;;4.20;1.30;;;23.50;93.50;;;;;;5046143;28;20151;-56
2022/08/29 13:05:01;;;;;;;6.32;1.35;;;23.50;93.00;;;;;;5045960;28;20051;-55